Terminal Aerodrome Forecast
Issued by NWS

Home | Current Version | Previous Version | Graphics & Text | Print | Product List | Glossary On
Versions: 1 2 3 4 5 6 7 8 9 10 11 12 13 14 15
000
FTUS43 KLSX 280102 AAA
TAFSUS
TAF AMD
KSUS 280102Z 2801/2824 VRB05KT P6SM VCTS BKN050CB BKN100
     FM280200 VRB03KT P6SM FEW050 BKN250
     FM281000 00000KT 4SM BR SCT250
     FM281400 VRB04KT P6SM SCT035 BKN250
     FM281900 12007KT P6SM SCT045 BKN250=

USA.gov is the U.S. government's official web portal to all federal, state and local government web resources and services.